Time;durP1;ratioP1;P1;durP2;ratioP2;P2;SDS_P1;SDS_P2;PMS_P1;PMS_P2;Temp;Humidity;BMP_temperature;BMP_pressure;BME280_temperature;BME280_humidity;BME280_pressure;Samples;Min_cycle;Max_cycle;Signal;HPM_P1;HPM_P2
2022/05/08 00:00:24;;;;;;;7.75;2.05;;;8.40;99.90;;;;;;4221931;28;20048;-82
2022/05/08 00:02:25;;;;;;;6.82;2.38;;;8.50;99.90;;;;;;4240218;28;20047;-82
2022/05/08 00:04:29;;;;;;;14.52;2.22;;;8.80;99.90;;;;;;4257542;27;20039;-81
2022/05/08 00:06:30;;;;;;;9.88;3.17;;;8.30;99.90;;;;;;4258680;27;20054;-82
2022/05/08 00:08:33;;;;;;;15.07;3.88;;;8.20;99.90;;;;;;4257334;27;20039;-82
2022/05/08 00:10:34;;;;;;;10.68;2.30;;;8.20;99.90;;;;;;4256081;27;20098;-82
2022/05/08 00:12:36;;;;;;;13.13;2.53;;;8.20;99.90;;;;;;4221337;28;20052;-82
2022/05/08 00:14:38;;;;;;;16.20;2.15;;;8.90;99.90;;;;;;4254858;27;20042;-82
2022/05/08 00:16:40;;;;;;;12.02;2.25;;;8.30;99.90;;;;;;4221042;28;20052;-82
2022/05/08 00:18:41;;;;;;;14.15;2.83;;;8.10;99.90;;;;;;4254208;27;20051;-82
2022/05/08 00:20:41;;;;;;;15.55;2.70;;;8.10;99.90;;;;;;4253624;27;20070;-82
2022/05/08 00:22:48;;;;;;;14.25;2.83;;;8.00;99.90;;;;;;4219934;28;20055;-82
2022/05/08 00:24:51;;;;;;;12.15;2.55;;;8.20;99.90;;;;;;4236567;28;20083;-82
2022/05/08 00:26:52;;;;;;;14.65;2.45;;;8.00;99.90;;;;;;4255503;27;20051;-82
2022/05/08 00:28:52;;;;;;;7.15;2.63;;;8.50;99.90;;;;;;4236257;28;20051;-82
2022/05/08 00:30:54;;;;;;;7.95;2.65;;;8.30;99.90;;;;;;4255387;27;20140;-82
2022/05/08 00:32:55;;;;;;;13.38;2.50;;;7.90;99.90;;;;;;4255854;27;20164;-82
2022/05/08 00:34:56;;;;;;;11.40;1.90;;;8.90;99.90;;;;;;4219358;28;20048;-82
2022/05/08 00:36:57;;;;;;;9.55;2.20;;;7.90;99.90;;;;;;4254529;28;20152;-82
2022/05/08 00:39:03;;;;;;;14.30;2.28;;;8.60;99.90;;;;;;4254833;28;20043;-82
2022/05/08 00:41:06;;;;;;;12.55;2.22;;;7.80;99.90;;;;;;4254164;28;20116;-82
2022/05/08 00:43:32;;;;;;;10.20;2.13;;;7.80;99.90;;;;;;4254255;28;20067;-82
2022/05/08 00:45:34;;;;;;;10.40;2.22;;;7.80;99.90;;;;;;4253565;28;20039;-82
2022/05/08 00:47:36;;;;;;;10.35;2.67;;;7.80;99.90;;;;;;4237751;28;20099;-82
2022/05/08 00:49:36;;;;;;;11.43;3.05;;;7.80;99.90;;;;;;4242516;28;20073;-82
2022/05/08 00:51:38;;;;;;;10.88;2.10;;;7.90;99.90;;;;;;4241425;28;20036;-82
2022/05/08 00:53:45;;;;;;;10.98;2.70;;;7.70;99.90;;;;;;4240735;28;20047;-81
2022/05/08 00:55:48;;;;;;;12.23;1.88;;;7.70;99.90;;;;;;4240890;28;20491;-82
2022/05/08 00:57:50;;;;;;;16.58;2.28;;;7.70;99.90;;;;;;4222914;28;20127;-82
2022/05/08 00:59:51;;;;;;;14.52;2.22;;;7.90;99.90;;;;;;4239901;28;20039;-82
2022/05/08 01:01:52;;;;;;;13.10;2.25;;;7.70;99.90;;;;;;4240990;28;20070;-82
2022/05/08 01:03:53;;;;;;;9.60;1.80;;;8.00;99.90;;;;;;4241668;28;20080;-82
2022/05/08 01:05:55;;;;;;;10.10;1.92;;;7.60;99.90;;;;;;4242737;28;20044;-82
2022/05/08 01:07:55;;;;;;;7.32;2.10;;;7.70;99.90;;;;;;4223259;28;20078;-82
2022/05/08 01:09:59;;;;;;;8.10;3.85;;;8.40;99.90;;;;;;4243102;28;20044;-82
2022/05/08 01:12:00;;;;;;;7.43;2.13;;;7.60;99.90;;;;;;4243041;28;20123;-82
2022/05/08 01:14:02;;;;;;;15.40;1.95;;;8.40;99.90;;;;;;4241901;28;20450;-82
2022/05/08 01:16:08;;;;;;;13.63;2.28;;;7.50;99.90;;;;;;4225057;28;20060;-82
2022/05/08 01:18:09;;;;;;;9.02;1.98;;;7.50;99.90;;;;;;4231672;28;20051;-82
2022/05/08 01:20:10;;;;;;;12.45;2.05;;;7.50;99.90;;;;;;4250611;28;20055;-82
2022/05/08 01:22:12;;;;;;;10.32;2.00;;;7.50;99.90;;;;;;4231358;28;20076;-82
2022/05/08 01:24:20;;;;;;;14.73;2.53;;;7.50;99.90;;;;;;4251547;28;20035;-82
2022/05/08 01:26:22;;;;;;;10.00;2.03;;;7.40;99.90;;;;;;4249315;28;20020;-82
2022/05/08 01:28:29;;;;;;;7.70;2.40;;;7.40;99.90;;;;;;4269687;27;20300;-82
2022/05/08 01:30:33;;;;;;;14.50;2.95;;;7.40;99.90;;;;;;4268671;27;20049;-82
2022/05/08 01:32:33;;;;;;;10.55;2.65;;;7.30;99.90;;;;;;4268759;27;20051;-82
2022/05/08 01:34:34;;;;;;;4.82;1.80;;;7.30;99.90;;;;;;4269457;27;20043;-82
2022/05/08 01:36:35;;;;;;;14.80;3.10;;;7.30;99.90;;;;;;4268800;27;20095;-82
2022/05/08 01:38:37;;;;;;;11.15;1.70;;;8.30;99.90;;;;;;4233866;28;20048;-82
2022/05/08 01:40:37;;;;;;;8.27;2.33;;;8.00;99.90;;;;;;4234810;28;20052;-82
2022/05/08 01:42:39;;;;;;;14.13;1.85;;;7.90;99.90;;;;;;4252298;28;20056;-81
2022/05/08 01:44:40;;;;;;;5.07;1.80;;;7.70;99.90;;;;;;4270082;27;20039;-82
2022/05/08 01:46:40;;;;;;;13.77;2.08;;;7.10;99.90;;;;;;4233470;28;20055;-82
2022/05/08 01:48:41;;;;;;;10.85;2.20;;;8.30;99.90;;;;;;4250752;28;20023;-82
2022/05/08 01:50:42;;;;;;;9.63;1.55;;;7.20;99.90;;;;;;4233951;28;20036;-82
2022/05/08 01:52:44;;;;;;;6.55;2.13;;;7.30;99.90;;;;;;4268367;27;20099;-82
2022/05/08 01:54:45;;;;;;;9.02;2.00;;;6.70;99.90;;;;;;4267096;27;20047;-82
2022/05/08 01:56:47;;;;;;;8.63;1.52;;;7.80;99.90;;;;;;4232170;28;20056;-83
2022/05/08 01:58:48;;;;;;;6.97;1.90;;;7.00;99.90;;;;;;4229014;28;20044;-82
2022/05/08 02:00:49;;;;;;;10.10;1.88;;;7.20;99.90;;;;;;4261392;27;20051;-81
2022/05/08 02:02:51;;;;;;;22.17;3.88;;;7.00;99.90;;;;;;4263868;27;20051;-81
2022/05/08 02:04:57;;;;;;;11.52;2.22;;;6.90;99.90;;;;;;4265739;27;20042;-81
2022/05/08 02:07:00;;;;;;;7.50;2.03;;;8.10;99.90;;;;;;4240866;28;20044;-81
2022/05/08 02:09:02;;;;;;;11.93;2.67;;;8.00;99.90;;;;;;4225266;28;20052;-81
2022/05/08 02:11:03;;;;;;;8.07;1.65;;;7.00;99.90;;;;;;4258910;27;20047;-82
2022/05/08 02:13:04;;;;;;;9.80;1.75;;;7.00;99.90;;;;;;4256519;27;20073;-83
2022/05/08 02:15:10;;;;;;;6.43;1.50;;;6.90;99.90;;;;;;4224586;28;20050;-82
2022/05/08 02:17:12;;;;;;;8.70;1.85;;;7.00;99.90;;;;;;4257965;27;20051;-82
2022/05/08 02:19:12;;;;;;;10.70;1.60;;;6.90;99.90;;;;;;4221715;28;20140;-82
2022/05/08 02:21:15;;;;;;;12.75;2.17;;;7.20;99.90;;;;;;4236705;28;20043;-82
2022/05/08 02:23:18;;;;;;;6.28;1.90;;;7.50;99.90;;;;;;4255508;27;20047;-82
2022/05/08 02:25:20;;;;;;;12.25;2.03;;;7.00;99.90;;;;;;4256293;27;20076;-82
2022/05/08 02:27:22;;;;;;;16.05;2.78;;;6.90;99.90;;;;;;4257842;27;20075;-82
2022/05/08 02:29:23;;;;;;;7.80;2.25;;;6.20;99.90;;;;;;4217773;28;20135;-82
2022/05/08 02:31:26;;;;;;;12.18;2.03;;;6.90;99.90;;;;;;4216216;28;20056;-82
2022/05/08 02:33:26;;;;;;;13.63;1.77;;;7.50;99.90;;;;;;4251512;27;20089;-82
2022/05/08 02:35:28;;;;;;;10.80;1.98;;;7.50;99.90;;;;;;4251558;27;20039;-82
2022/05/08 02:37:28;;;;;;;9.85;2.88;;;6.70;99.90;;;;;;4251462;27;20081;-82
2022/05/08 02:39:29;;;;;;;11.57;3.08;;;6.70;99.90;;;;;;4216360;28;20044;-82
2022/05/08 02:41:31;;;;;;;10.30;1.63;;;7.90;99.90;;;;;;4251124;27;20031;-82
2022/05/08 02:43:31;;;;;;;5.07;1.55;;;7.10;99.90;;;;;;4251338;27;20071;-82
2022/05/08 02:45:32;;;;;;;8.48;1.90;;;6.50;99.90;;;;;;4250985;27;20096;-82
2022/05/08 02:47:35;;;;;;;10.52;1.52;;;6.50;99.90;;;;;;4234687;27;20042;-82
2022/05/08 02:49:37;;;;;;;9.68;2.63;;;7.30;99.90;;;;;;4234393;28;20114;-82
2022/05/08 02:51:38;;;;;;;7.10;1.63;;;7.70;99.90;;;;;;4216084;28;20044;-82
2022/05/08 02:53:39;;;;;;;9.32;2.35;;;7.20;99.90;;;;;;4234580;28;20046;-82
2022/05/08 03:00:20;;;;;;;9.65;1.80;;;6.70;99.90;;;;;;4215985;28;20052;-82
2022/05/08 03:02:22;;;;;;;8.85;2.15;;;6.30;99.90;;;;;;4199074;28;20458;-82
2022/05/08 03:04:23;;;;;;;13.85;2.88;;;7.00;99.90;;;;;;4233838;28;20040;-82
2022/05/08 03:06:23;;;;;;;8.35;2.00;;;6.30;99.90;;;;;;4234084;28;20039;-82
2022/05/08 03:08:25;;;;;;;7.28;1.83;;;6.80;99.90;;;;;;4234360;28;20066;-82
2022/05/08 03:10:26;;;;;;;8.27;2.00;;;6.40;99.90;;;;;;4234278;28;20487;-82
2022/05/08 03:12:27;;;;;;;8.75;1.77;;;6.40;99.90;;;;;;4215866;28;20044;-82
2022/05/08 03:14:27;;;;;;;9.20;1.95;;;6.40;99.90;;;;;;4216937;28;20040;-81
2022/05/08 03:16:28;;;;;;;10.68;2.22;;;6.40;99.90;;;;;;4216452;28;20492;-81
2022/05/08 03:18:29;;;;;;;10.43;2.03;;;6.40;99.90;;;;;;4216895;28;20040;-81
2022/05/08 03:20:30;;;;;;;7.43;1.75;;;6.30;99.90;;;;;;4235406;27;20085;-81
2022/05/08 03:22:31;;;;;;;7.03;1.63;;;6.40;99.90;;;;;;4235785;28;20046;-81
2022/05/08 03:24:32;;;;;;;12.15;3.13;;;6.30;99.90;;;;;;4235333;28;20048;-81
2022/05/08 03:26:36;;;;;;;7.35;2.30;;;6.40;99.90;;;;;;4251905;27;20043;-81
2022/05/08 03:28:40;;;;;;;14.65;2.55;;;6.30;99.90;;;;;;4253286;27;20044;-81
2022/05/08 03:30:40;;;;;;;5.22;1.98;;;6.20;99.90;;;;;;4253145;27;20114;-81
2022/05/08 03:32:42;;;;;;;6.20;1.80;;;7.20;99.90;;;;;;4252544;27;20043;-81
2022/05/08 03:34:44;;;;;;;15.10;2.35;;;6.20;99.90;;;;;;4217436;28;20150;-81
2022/05/08 03:36:45;;;;;;;12.73;2.47;;;6.20;99.90;;;;;;4250870;27;20053;-81
2022/05/08 03:38:47;;;;;;;8.88;1.58;;;6.20;99.90;;;;;;4251107;27;20067;-81
2022/05/08 03:40:48;;;;;;;4.60;1.80;;;6.30;99.90;;;;;;4232661;28;20522;-81
2022/05/08 03:42:48;;;;;;;8.80;1.45;;;6.30;99.90;;;;;;4251242;27;20047;-81
2022/05/08 03:44:53;;;;;;;6.47;2.08;;;6.20;99.90;;;;;;4233596;28;20043;-82
2022/05/08 03:46:54;;;;;;;5.03;1.20;;;6.10;99.90;;;;;;4251643;27;20051;-80
2022/05/08 03:48:56;;;;;;;10.68;2.15;;;6.40;99.90;;;;;;4232620;28;20040;-82
2022/05/08 03:50:57;;;;;;;9.68;1.80;;;6.10;99.90;;;;;;4232333;28;20050;-81
2022/05/08 03:52:58;;;;;;;4.03;1.10;;;6.90;99.90;;;;;;4247257;27;20035;-80
2022/05/08 03:55:00;;;;;;;6.25;1.77;;;6.10;99.90;;;;;;4232023;28;20508;-81
2022/05/08 03:57:01;;;;;;;4.00;1.42;;;6.10;99.90;;;;;;4233356;28;20530;-81
2022/05/08 03:59:03;;;;;;;8.95;1.70;;;6.10;99.90;;;;;;4232757;28;20555;-81
2022/05/08 04:01:05;;;;;;;8.45;2.50;;;6.10;99.90;;;;;;4232984;28;20050;-81
2022/05/08 04:03:06;;;;;;;5.65;1.63;;;6.00;99.90;;;;;;4233191;28;20047;-81
2022/05/08 04:05:07;;;;;;;8.80;1.52;;;6.00;99.90;;;;;;4233191;28;20144;-81
2022/05/08 04:07:09;;;;;;;4.90;1.15;;;6.00;99.90;;;;;;4233898;28;20119;-81
2022/05/08 04:09:12;;;;;;;4.55;1.30;;;6.80;99.90;;;;;;4233172;28;20083;-81
2022/05/08 04:11:13;;;;;;;6.88;2.22;;;6.00;99.90;;;;;;4233683;28;20126;-81
2022/05/08 04:13:15;;;;;;;7.15;1.70;;;6.00;99.90;;;;;;4233088;28;20081;-81
2022/05/08 04:17:36;;;;;;;5.15;1.30;;;6.00;99.90;;;;;;4233842;28;20527;-81
2022/05/08 04:19:37;;;;;;;9.68;1.27;;;6.20;99.90;;;;;;4233595;28;20514;-81
2022/05/08 04:21:39;;;;;;;10.45;2.38;;;6.00;99.90;;;;;;4234394;28;20044;-81
2022/05/08 04:26:01;;;;;;;5.82;1.50;;;6.30;99.90;;;;;;4227422;28;20051;-81
2022/05/08 04:28:02;;;;;;;4.82;1.30;;;6.00;99.90;;;;;;4232580;28;20120;-81
2022/05/08 04:30:05;;;;;;;14.85;2.25;;;6.00;99.90;;;;;;4234066;28;20108;-81
2022/05/08 04:32:06;;;;;;;8.18;1.95;;;6.00;99.90;;;;;;4251568;27;20109;-81
2022/05/08 04:34:08;;;;;;;7.95;1.80;;;6.00;99.90;;;;;;4216085;28;20048;-82
2022/05/08 04:36:10;;;;;;;8.50;1.45;;;6.00;99.90;;;;;;4251426;27;20495;-82
2022/05/08 04:38:12;;;;;;;3.55;1.40;;;6.00;99.90;;;;;;4253487;28;20039;-81
2022/05/08 04:40:13;;;;;;;10.48;3.03;;;6.10;99.90;;;;;;4235193;28;20060;-82
2022/05/08 04:42:14;;;;;;;9.13;1.95;;;6.10;99.90;;;;;;4252668;28;20047;-82
2022/05/08 04:44:15;;;;;;;4.30;1.30;;;6.10;99.90;;;;;;4252208;28;20384;-82
2022/05/08 04:46:15;;;;;;;10.02;1.65;;;6.10;99.90;;;;;;4252796;28;20047;-82
2022/05/08 04:48:16;;;;;;;9.30;1.95;;;6.50;99.90;;;;;;4233590;28;20411;-82
2022/05/08 04:50:17;;;;;;;4.05;1.52;;;6.30;99.90;;;;;;4214510;28;20050;-82
2022/05/08 04:52:18;;;;;;;10.82;1.65;;;6.40;99.90;;;;;;4233089;28;20099;-82
2022/05/08 04:54:18;;;;;;;5.03;1.15;;;6.40;99.90;;;;;;4214419;28;20412;-82
2022/05/08 04:56:21;;;;;;;4.30;1.92;;;7.20;99.90;;;;;;4231362;28;20051;-82
2022/05/08 04:58:22;;;;;;;7.35;1.17;;;7.30;99.90;;;;;;4249887;28;20051;-82
2022/05/08 05:00:23;;;;;;;5.63;1.48;;;6.60;99.90;;;;;;4249609;28;20123;-82
2022/05/08 05:02:27;;;;;;;8.20;2.25;;;7.50;99.90;;;;;;4231037;28;20407;-82
2022/05/08 05:04:28;;;;;;;5.53;1.67;;;6.90;99.90;;;;;;4248964;28;20131;-82
2022/05/08 05:06:30;;;;;;;7.65;1.63;;;7.00;99.90;;;;;;4230950;28;20059;-82
2022/05/08 05:08:31;;;;;;;4.55;1.10;;;7.20;99.90;;;;;;4249023;28;20050;-82
2022/05/08 05:10:31;;;;;;;7.95;1.92;;;7.30;99.90;;;;;;4231083;28;20051;-82
2022/05/08 05:12:32;;;;;;;5.07;1.15;;;7.40;99.90;;;;;;4249095;28;20112;-82
2022/05/08 05:14:33;;;;;;;4.45;1.40;;;7.80;99.90;;;;;;4249519;28;20035;-82
2022/05/08 05:16:34;;;;;;;14.65;3.17;;;7.60;99.90;;;;;;4214154;28;20055;-83
2022/05/08 05:18:34;;;;;;;8.55;1.73;;;7.70;99.90;;;;;;4230242;28;20056;-82
2022/05/08 05:20:35;;;;;;;9.57;1.52;;;7.80;99.90;;;;;;4248810;28;20448;-82
2022/05/08 05:22:36;;;;;;;8.18;1.48;;;7.90;99.90;;;;;;4230121;28;20079;-82
2022/05/08 05:24:37;;;;;;;5.78;1.30;;;8.20;99.90;;;;;;4230437;28;20434;-82
2022/05/08 05:26:38;;;;;;;4.55;1.52;;;8.10;99.90;;;;;;4231091;28;20407;-82
2022/05/08 05:28:39;;;;;;;4.68;1.60;;;7.90;99.90;;;;;;4233172;28;20044;-80
2022/05/08 05:30:42;;;;;;;10.02;2.60;;;7.90;99.90;;;;;;4217534;28;20051;-82
2022/05/08 05:32:43;;;;;;;7.47;1.70;;;8.00;99.90;;;;;;4201066;28;20055;-82
2022/05/08 05:34:46;;;;;;;8.63;1.30;;;8.60;99.90;;;;;;4201844;28;20040;-82
2022/05/08 05:36:47;;;;;;;6.00;1.17;;;8.40;99.90;;;;;;4238260;28;20460;-82
2022/05/08 05:38:50;;;;;;;12.70;1.50;;;8.20;99.90;;;;;;4237969;28;20050;-82
2022/05/08 05:40:50;;;;;;;8.20;2.65;;;8.30;99.90;;;;;;4236854;28;20043;-82
2022/05/08 05:42:52;;;;;;;7.10;1.88;;;8.10;99.90;;;;;;4219317;28;20157;-83
2022/05/08 05:44:54;;;;;;;5.97;1.52;;;8.40;99.90;;;;;;4236636;28;20559;-83
2022/05/08 05:49:19;;;;;;;7.68;2.35;;;;;;;;;;4237633;28;20044;-83
2022/05/08 05:51:21;;;;;;;6.05;1.30;;;8.40;99.90;;;;;;4219122;28;20488;-83
2022/05/08 05:53:23;;;;;;;9.80;1.58;;;8.90;99.90;;;;;;4236734;28;20039;-80
2022/05/08 05:55:24;;;;;;;8.65;2.75;;;;;;;;;;4218793;28;20036;-82
2022/05/08 05:57:25;;;;;;;6.38;1.40;;;;;;;;;;4218640;28;20599;-82
2022/05/08 05:59:26;;;;;;;8.95;1.58;;;;;;;;;;4238331;28;20380;-82
2022/05/08 06:01:28;;;;;;;5.05;1.30;;;;;;;;;;4237184;28;20077;-82
2022/05/08 06:03:32;;;;;;;7.05;2.30;;;;;;;;;;4237868;28;20070;-82
2022/05/08 06:05:33;;;;;;;6.25;1.27;;;;;;;;;;4218849;28;20087;-82
2022/05/08 06:07:35;;;;;;;10.02;1.73;;;;;;;;;;4237424;28;20052;-82
2022/05/08 06:09:36;;;;;;;8.88;1.55;;;;;;;;;;4219840;28;20490;-82
2022/05/08 06:11:37;;;;;;;9.55;1.42;;;;;;;;;;4224833;28;20623;-82
2022/05/08 06:13:38;;;;;;;6.45;1.30;;;;;;;;;;4224977;28;20112;-82
2022/05/08 06:15:40;;;;;;;8.85;1.33;;;;;;;;;;4243368;28;20062;-82
2022/05/08 06:17:43;;;;;;;9.10;1.30;;;;;;;;;;4242843;28;20047;-82
2022/05/08 06:19:45;;;;;;;6.72;1.58;;;;;;;;;;4243162;28;20569;-82
2022/05/08 06:21:47;;;;;;;6.25;1.00;;;;;;;;;;4242991;28;20039;-82
2022/05/08 06:23:56;;;;;;;10.45;1.35;;;;;;;;;;4243965;28;20047;-82
2022/05/08 06:25:57;;;;;;;8.05;1.00;;;;;;;;;;4236494;28;20051;-82
2022/05/08 06:28:05;;;;;;;10.48;1.55;;;;;;;;;;4257469;27;20039;-82
2022/05/08 06:30:08;;;;;;;8.10;2.20;;;;;;;;;;4259964;27;20047;-82
2022/05/08 06:32:09;;;;;;;4.93;1.35;;;;;;;;;;4244139;28;20053;-82
2022/05/08 06:34:13;;;;;;;5.05;1.08;;;;;;;;;;4261361;27;20070;-82
2022/05/08 06:36:14;;;;;;;7.20;1.13;;;;;;;;;;4243239;28;20106;-82
2022/05/08 06:38:17;;;;;;;3.65;1.27;;;;;;;;;;4260095;27;20108;-82
2022/05/08 06:40:18;;;;;;;13.93;1.30;;;;;;;;;;4259898;27;20077;-82
2022/05/08 06:42:20;;;;;;;10.85;1.42;;;;;;;;;;4258086;27;20523;-83
2022/05/08 06:44:22;;;;;;;12.90;1.50;;;;;;;;;;4257471;27;20575;-83
2022/05/08 06:46:24;;;;;;;7.53;1.60;;;;;;;;;;4256049;27;20054;-82
2022/05/08 06:48:27;;;;;;;8.35;1.38;;;;;;;;;;4238508;28;20043;-83
2022/05/08 06:50:32;;;;;;;6.22;1.52;;;;;;;;;;4256723;27;20089;-83
2022/05/08 06:52:39;;;;;;;9.38;1.25;;;;;;;;;;4239507;28;20055;-81
2022/05/08 06:54:40;;;;;;;4.72;1.50;;;;;;;;;;4257487;27;20039;-83
2022/05/08 06:56:42;;;;;;;7.90;1.30;;;;;;;;;;4236597;28;20078;-82
2022/05/08 07:03:26;;;;;;;11.48;1.40;;;;;;;;;;4222759;28;20052;-82
2022/05/08 07:05:27;;;;;;;13.43;2.35;;;;;;;;;;4239361;28;20095;-82
2022/05/08 07:07:28;;;;;;;6.55;1.65;;;;;;;;;;4237763;28;20061;-82
2022/05/08 07:09:29;;;;;;;6.80;1.08;;;;;;;;;;4218602;28;20107;-82
2022/05/08 07:11:37;;;;;;;6.85;1.45;;;9.10;99.90;;;;;;4218898;28;20055;-82
2022/05/08 07:13:39;;;;;;;5.82;1.58;;;11.30;97.20;;;;;;4219499;28;20119;-82
2022/05/08 07:15:40;;;;;;;6.80;1.27;;;11.20;96.90;;;;;;4219893;28;20407;-81
2022/05/08 07:17:42;;;;;;;7.10;1.30;;;11.10;97.00;;;;;;4232189;28;20059;-83
2022/05/08 07:19:43;;;;;;;4.22;1.73;;;11.00;96.90;;;;;;4214188;28;20060;-82
2022/05/08 07:21:44;;;;;;;7.85;1.42;;;11.00;96.90;;;;;;4232044;28;20086;-83
2022/05/08 07:23:45;;;;;;;9.48;1.65;;;10.90;96.90;;;;;;4213596;28;20094;-82
2022/05/08 07:25:47;;;;;;;8.70;1.20;;;11.00;97.00;;;;;;4222512;28;20062;-82
2022/05/08 07:27:48;;;;;;;9.35;1.65;;;11.20;96.80;;;;;;4231435;28;20040;-82
2022/05/08 07:29:52;;;;;;;10.40;1.35;;;;;;;;;;4213420;28;20066;-82
2022/05/08 07:31:53;;;;;;;8.32;1.63;;;;;;;;;;4213384;28;20044;-82
2022/05/08 07:36:14;;;;;;;7.63;1.40;;;;;;;;;;4231503;28;20058;-82
2022/05/08 07:38:17;;;;;;;5.50;1.48;;;;;;;;;;4213227;28;20044;-82
2022/05/08 07:40:18;;;;;;;11.90;1.20;;;;;;;;;;4231308;28;20053;-83
2022/05/08 07:42:19;;;;;;;8.52;1.60;;;;;;;;;;4230923;28;20480;-83
2022/05/08 07:44:20;;;;;;;11.48;2.03;;;;;;;;;;4231337;28;20040;-82
2022/05/08 07:46:23;;;;;;;11.23;1.25;;;11.50;96.30;;;;;;4231374;28;20050;-82
2022/05/08 07:48:24;;;;;;;15.90;2.40;;;;;;;;;;4231139;28;20043;-82
2022/05/08 07:50:25;;;;;;;7.15;1.00;;;13.20;93.20;;;;;;4213900;28;20075;-83
2022/05/08 07:52:27;;;;;;;12.20;1.48;;;13.50;92.60;;;;;;4231916;28;20043;-82
2022/05/08 07:54:27;;;;;;;5.65;1.02;;;13.50;92.50;;;;;;4231618;28;20048;-82
2022/05/08 07:56:28;;;;;;;11.50;2.60;;;13.70;92.20;;;;;;4214504;28;20495;-82
2022/05/08 07:58:31;;;;;;;7.93;1.65;;;13.70;92.00;;;;;;4230979;28;20040;-82
2022/05/08 08:00:32;;;;;;;9.95;1.38;;;14.00;91.80;;;;;;4230049;28;20165;-82
2022/05/08 08:02:32;;;;;;;8.82;1.80;;;14.00;91.60;;;;;;4235124;27;20411;-82
2022/05/08 08:04:34;;;;;;;10.18;1.83;;;14.20;91.40;;;;;;4235637;27;20544;-82
2022/05/08 08:06:35;;;;;;;9.43;1.58;;;14.40;91.10;;;;;;4248102;27;20113;-82
2022/05/08 08:08:37;;;;;;;6.68;2.08;;;14.60;90.70;;;;;;4234165;27;20523;-82
2022/05/08 08:10:38;;;;;;;5.95;1.45;;;14.80;90.40;;;;;;4217859;28;20039;-83
2022/05/08 08:12:39;;;;;;;9.80;1.63;;;15.00;89.80;;;;;;4248294;27;20548;-82
2022/05/08 08:14:40;;;;;;;7.00;1.30;;;15.30;89.00;;;;;;4248073;27;20047;-82
2022/05/08 08:16:41;;;;;;;5.60;1.30;;;15.40;88.50;;;;;;4248205;27;20396;-82
2022/05/08 08:18:43;;;;;;;8.48;2.10;;;15.70;88.30;;;;;;4248359;27;20078;-82
2022/05/08 08:20:44;;;;;;;16.30;3.40;;;15.90;87.30;;;;;;4216368;28;20044;-82
2022/05/08 08:22:45;;;;;;;9.00;1.48;;;;;;;;;;4231080;28;20468;-82
2022/05/08 08:24:48;;;;;;;5.15;1.30;;;16.20;86.30;;;;;;4242903;27;20038;-82
2022/05/08 08:26:49;;;;;;;6.22;1.60;;;;;;;;;;4247924;27;20047;-82
2022/05/08 08:28:50;;;;;;;5.43;1.60;;;16.40;83.80;;;;;;4230168;28;20050;-82
2022/05/08 08:30:50;;;;;;;4.43;1.73;;;16.70;82.40;;;;;;4229313;28;20054;-82
2022/05/08 08:32:51;;;;;;;9.98;1.63;;;;;;;;;;4247980;27;20479;-82
2022/05/08 08:34:55;;;;;;;12.07;1.48;;;16.70;81.40;;;;;;4248282;27;20043;-82
2022/05/08 08:36:56;;;;;;;11.50;1.42;;;;;;;;;;4248368;27;20039;-82
2022/05/08 08:38:57;;;;;;;5.55;1.20;;;16.80;81.00;;;;;;4248662;28;20079;-82
2022/05/08 08:41:04;;;;;;;15.50;1.50;;;;;;;;;;4247985;28;20078;-82
2022/05/08 08:43:09;;;;;;;9.55;1.52;;;;;;;;;;4230026;28;20135;-82
2022/05/08 08:47:45;;;;;;;10.07;1.05;;;16.90;80.10;;;;;;4247995;28;20047;-82
2022/05/08 08:49:54;;;;;;;5.53;0.98;;;16.90;77.70;;;;;;4247703;28;20073;-82
2022/05/08 08:51:55;;;;;;;11.73;1.80;;;16.90;76.70;;;;;;4247984;28;20050;-82
2022/05/08 08:53:57;;;;;;;4.30;1.35;;;;;;;;;;4229879;28;20431;-82
2022/05/08 08:56:00;;;;;;;13.07;2.58;;;;;;;;;;4248165;28;20040;-82
2022/05/08 08:58:01;;;;;;;7.82;1.13;;;;;;;;;;4248152;28;20043;-82
2022/05/08 09:00:05;;;;;;;4.72;1.13;;;;;;;;;;4229960;28;20040;-82
2022/05/08 09:02:14;;;;;;;7.60;1.10;;;;;;;;;;4247854;28;20054;-82
2022/05/08 09:04:18;;;;;;;3.60;0.98;;;;;;;;;;4248775;28;20047;-82
2022/05/08 09:06:19;;;;;;;6.25;1.27;;;;;;;;;;4239328;28;20127;-82
2022/05/08 09:08:27;;;;;;;9.77;1.67;;;;;;;;;;4229201;28;20069;-82
2022/05/08 09:10:35;;;;;;;5.82;1.20;;;;;;;;;;4237749;28;20126;-82
2022/05/08 09:12:36;;;;;;;9.17;1.20;;;;;;;;;;4238516;28;20047;-82
2022/05/08 09:14:37;;;;;;;8.75;1.52;;;;;;;;;;4237581;28;20316;-82
2022/05/08 09:16:54;;;;;;;12.18;2.25;;;;;;;;;;4236590;28;20043;-83
2022/05/08 09:18:55;;;;;;;7.00;1.20;;;;;;;;;;4238705;28;20058;-82
2022/05/08 09:21:54;;;;;;;9.65;2.38;;;;;;;;;;4236772;28;20102;-81
2022/05/08 09:23:21;;;;;;;5.75;0.98;;;;;;;;;;4250964;27;20535;-81
2022/05/08 09:25:23;;;;;;;9.80;1.98;;;;;;;;;;4253119;27;20510;-82
2022/05/08 09:27:24;;;;;;;6.32;0.90;;;;;;;;;;4251410;27;20425;-82
2022/05/08 09:29:25;;;;;;;9.00;1.48;;;;;;;;;;4251678;27;20356;-83
2022/05/08 09:31:27;;;;;;;10.43;0.93;;;;;;;;;;4233290;28;20047;-83
2022/05/08 09:33:30;;;;;;;5.50;1.38;;;;;;;;;;4251074;27;20118;-83
2022/05/08 09:35:44;;;;;;;7.50;1.63;;;;;;;;;;4251124;27;20481;-83
2022/05/08 09:37:52;;;;;;;8.02;1.88;;;;;;;;;;4232995;28;20050;-83
2022/05/08 09:40:13;;;;;;;4.68;0.90;;;;;;;;;;4251450;27;20118;-83
2022/05/08 09:42:33;;;;;;;7.65;1.42;;;;;;;;;;4250819;27;20080;-83
2022/05/08 09:44:34;;;;;;;7.70;1.88;;;;;;;;;;4251050;27;20053;-83
2022/05/08 09:46:38;;;;;;;8.20;1.25;;;;;;;;;;4250598;27;20376;-83
2022/05/08 09:48:39;;;;;;;9.60;1.48;;;;;;;;;;4246141;27;20363;-83
2022/05/08 09:50:41;;;;;;;6.85;1.55;;;;;;;;;;4243493;27;20047;-83
2022/05/08 09:52:43;;;;;;;9.80;1.35;;;;;;;;;;4249762;27;20087;-83
2022/05/08 09:54:45;;;;;;;6.32;1.02;;;;;;;;;;4233181;28;20380;-83
2022/05/08 09:56:47;;;;;;;5.32;1.08;;;;;;;;;;4250884;27;20047;-83
2022/05/08 09:58:48;;;;;;;6.97;1.95;;;;;;;;;;4251678;27;20031;-82
2022/05/08 10:00:51;;;;;;;8.30;1.10;;;;;;;;;;4234907;28;20052;-82
2022/05/08 10:02:53;;;;;;;7.68;1.23;;;;;;;;;;4251105;27;20160;-83
2022/05/08 10:04:54;;;;;;;7.75;1.55;;;;;;;;;;4251287;27;20388;-83
2022/05/08 10:06:56;;;;;;;8.70;1.30;;;;;;;;;;4250257;27;20039;-83
2022/05/08 10:13:53;;;;;;;9.05;2.28;;;;;;;;;;4250662;27;20112;-84
2022/05/08 10:14:00;;;;;;;7.75;1.38;;;;;;;;;;4250596;27;20501;-84
2022/05/08 10:16:01;;;;;;;6.38;1.05;;;;;;;;;;4250129;27;20054;-84
2022/05/08 10:18:20;;;;;;;10.10;1.38;;;;;;;;;;4250402;27;20083;-84
2022/05/08 10:20:44;;;;;;;10.45;1.83;;;;;;;;;;4248722;27;20054;-83
2022/05/08 10:22:48;;;;;;;6.78;1.25;;;;;;;;;;4250526;27;20080;-83
2022/05/08 10:24:51;;;;;;;8.82;1.33;;;;;;;;;;4248960;27;20439;-83
2022/05/08 10:27:14;;;;;;;12.73;2.47;;;;;;;;;;4233453;28;20047;-83
2022/05/08 10:29:15;;;;;;;8.30;1.30;;;;;;;;;;4232867;28;20046;-84
2022/05/08 10:31:37;;;;;;;6.03;1.45;;;;;;;;;;4215736;28;20044;-83
2022/05/08 10:33:57;;;;;;;7.43;1.65;;;;;;;;;;4232816;28;20047;-84
2022/05/08 10:36:07;;;;;;;9.13;1.50;;;;;;;;;;4233664;28;20047;-84
2022/05/08 10:38:09;;;;;;;4.93;1.35;;;;;;;;;;4233501;28;20046;-84
2022/05/08 10:40:30;;;;;;;7.97;1.40;;;;;;;;;;4233326;28;20110;-84
2022/05/08 10:42:39;;;;;;;9.20;1.55;;;;;;;;;;4233123;28;20054;-84
2022/05/08 10:44:42;;;;;;;8.70;1.27;;;;;;;;;;4233041;28;20063;-84
2022/05/08 10:46:44;;;;;;;5.22;1.25;;;;;;;;;;4232982;28;20043;-84
2022/05/08 10:48:46;;;;;;;8.77;1.17;;;;;;;;;;4233357;28;20046;-84
2022/05/08 10:50:51;;;;;;;12.07;1.65;;;;;;;;;;4232990;28;20047;-84
2022/05/08 10:52:52;;;;;;;5.50;1.25;;;;;;;;;;4232833;28;20047;-84
2022/05/08 10:55:00;;;;;;;10.27;2.22;;;;;;;;;;4214338;28;20056;-84
2022/05/08 10:57:01;;;;;;;8.57;1.05;;;;;;;;;;4233207;28;20091;-84
2022/05/08 10:59:04;;;;;;;6.70;1.30;;;;;;;;;;4233156;28;20054;-84
2022/05/08 11:01:07;;;;;;;11.85;1.60;;;;;;;;;;4214452;28;20127;-84
2022/05/08 11:03:09;;;;;;;13.65;3.05;;;;;;;;;;4232481;28;20127;-84
2022/05/08 11:05:11;;;;;;;11.38;2.55;;;;;;;;;;4232376;28;20048;-84
2022/05/08 11:07:12;;;;;;;8.70;1.38;;;;;;;;;;4231860;28;20054;-84
2022/05/08 11:09:13;;;;;;;7.70;2.17;;;;;;;;;;4232075;28;20122;-84
2022/05/08 11:11:14;;;;;;;6.65;2.15;;;;;;;;;;4231152;28;20092;-84
2022/05/08 11:13:18;;;;;;;6.50;1.20;;;;;;;;;;4232150;28;20432;-84
2022/05/08 11:15:20;;;;;;;5.22;1.20;;;;;;;;;;4231840;28;20036;-85
2022/05/08 11:17:21;;;;;;;8.43;1.90;;;;;;;;;;4232429;28;20043;-84
2022/05/08 11:19:23;;;;;;;10.77;1.52;;;;;;;;;;4231718;28;20056;-84
2022/05/08 11:21:25;;;;;;;5.78;1.90;;;;;;;;;;4231866;28;20051;-84
2022/05/08 11:23:27;;;;;;;3.22;0.90;;;;;;;;;;4231994;28;20067;-84
2022/05/08 11:25:28;;;;;;;4.55;1.35;;;;;;;;;;4238850;27;20487;-84
2022/05/08 11:27:29;;;;;;;8.00;1.55;;;;;;;;;;4248322;27;20031;-83
2022/05/08 11:29:30;;;;;;;6.10;1.42;;;;;;;;;;4248797;27;20050;-83
2022/05/08 11:31:33;;;;;;;7.72;1.83;;;;;;;;;;4248703;27;20043;-84
2022/05/08 11:36:08;;;;;;;8.93;1.30;;;;;;;;;;4248805;27;20047;-84
2022/05/08 11:38:11;;;;;;;6.18;1.15;;;;;;;;;;4248165;27;20079;-84
2022/05/08 11:40:12;;;;;;;7.07;1.27;;;;;;;;;;4248685;27;20047;-84